createdAt,value
2023-01-29T00:00:03.668Z,16.80
2023-01-29T00:02:30.077Z,15.32
2023-01-29T00:04:59.052Z,17.80
2023-01-29T00:07:25.623Z,15.77
2023-01-29T00:09:51.899Z,17.30
2023-01-29T00:12:18.203Z,16.63
2023-01-29T00:14:44.496Z,16.08
2023-01-29T00:17:10.907Z,17.33
2023-01-29T00:19:37.232Z,16.88
2023-01-29T00:22:03.654Z,17.27
2023-01-29T00:24:30.006Z,17.90
2023-01-29T00:26:56.363Z,15.55
2023-01-29T00:29:22.669Z,18.13
2023-01-29T00:31:49.093Z,16.77
2023-01-29T00:34:15.446Z,16.63
2023-01-29T00:36:44.219Z,18.42
2023-01-29T00:39:10.978Z,16.73
2023-01-29T00:41:56.232Z,17.08
2023-01-29T00:44:40.974Z,17.42
2023-01-29T00:47:30.768Z,16.73
2023-01-29T00:49:57.379Z,15.82
2023-01-29T00:52:23.911Z,17.05
2023-01-29T00:54:50.700Z,15.10
2023-01-29T00:57:16.950Z,17.33
2023-01-29T00:59:43.348Z,16.70
2023-01-29T01:02:28.428Z,16.15
2023-01-29T01:04:54.701Z,16.65
2023-01-29T01:07:20.966Z,17.25
2023-01-29T01:10:06.030Z,16.13
2023-01-29T01:12:32.416Z,15.20
2023-01-29T01:14:58.715Z,16.20
2023-01-29T01:17:25.103Z,16.08
2023-01-29T01:19:51.449Z,18.27
2023-01-29T01:22:18.038Z,17.02
2023-01-29T01:24:44.348Z,17.63
2023-01-29T01:27:10.770Z,16.60
2023-01-29T01:29:37.047Z,15.45
2023-01-29T01:32:03.434Z,15.93
2023-01-29T01:34:29.722Z,16.63
2023-01-29T01:36:56.313Z,17.13
2023-01-29T01:39:23.182Z,18.13
2023-01-29T01:41:49.473Z,17.15
2023-01-29T01:44:34.668Z,17.00
2023-01-29T01:47:01.577Z,17.20
2023-01-29T01:49:27.927Z,17.02
2023-01-29T01:51:54.244Z,16.42
2023-01-29T01:54:31.519Z,16.42
2023-01-29T01:57:09.187Z,16.33
2023-01-29T01:59:40.029Z,17.27
2023-01-29T02:02:25.590Z,16.10
2023-01-29T02:05:11.319Z,15.95
2023-01-29T02:08:00.307Z,16.30
2023-01-29T02:12:53.126Z,16.20
2023-01-29T02:15:19.630Z,17.92
2023-01-29T02:17:48.399Z,17.80
2023-01-29T02:20:27.096Z,17.90
2023-01-29T02:23:02.621Z,16.88
2023-01-29T02:25:43.029Z,17.17
2023-01-29T02:28:15.473Z,16.88
2023-01-29T02:30:46.522Z,17.98
2023-01-29T02:33:23.621Z,17.00
2023-01-29T02:35:56.030Z,17.42
2023-01-29T02:38:22.497Z,17.27
2023-01-29T02:40:54.648Z,17.85
2023-01-29T02:43:44.612Z,17.20
2023-01-29T02:46:14.052Z,18.27
2023-01-29T02:48:44.049Z,17.60
2023-01-29T02:51:33.844Z,18.33
2023-01-29T02:54:00.278Z,17.00
2023-01-29T02:56:44.465Z,16.50
2023-01-29T02:59:18.589Z,18.30
2023-01-29T03:01:48.126Z,18.00
2023-01-29T03:04:18.645Z,17.70
2023-01-29T03:06:48.133Z,18.15
2023-01-29T03:09:20.036Z,17.63
2023-01-29T03:11:49.594Z,16.30
2023-01-29T03:14:18.594Z,16.42
2023-01-29T03:16:54.450Z,16.92
2023-01-29T03:19:29.141Z,16.83
2023-01-29T03:21:59.835Z,17.05
2023-01-29T03:24:49.156Z,16.75
2023-01-29T03:27:35.350Z,16.67
2023-01-29T03:30:20.638Z,17.02
2023-01-29T03:32:47.745Z,17.05
2023-01-29T03:35:21.063Z,16.75
2023-01-29T03:37:48.472Z,18.33
2023-01-29T03:40:15.466Z,16.15
2023-01-29T03:42:48.358Z,16.70
2023-01-29T03:45:14.775Z,17.23
2023-01-29T03:48:00.002Z,17.52
2023-01-29T03:50:35.517Z,16.83
2023-01-29T03:53:10.981Z,15.75
2023-01-29T03:55:58.458Z,15.82
2023-01-29T03:58:43.872Z,16.63
2023-01-29T04:01:18.343Z,17.40
2023-01-29T04:03:49.967Z,16.17
2023-01-29T04:06:18.820Z,17.35
2023-01-29T04:08:51.286Z,14.90
2023-01-29T04:11:19.881Z,17.40
2023-01-29T04:13:46.690Z,17.25
2023-01-29T04:16:16.100Z,16.27
2023-01-29T04:18:44.962Z,17.63
2023-01-29T04:21:11.431Z,16.77
2023-01-29T04:23:37.970Z,17.67
2023-01-29T04:26:16.049Z,16.85
2023-01-29T04:28:42.374Z,16.23
2023-01-29T04:31:11.477Z,17.48
2023-01-29T04:33:44.744Z,17.65
2023-01-29T04:36:29.027Z,16.30
2023-01-29T04:39:14.337Z,16.38
2023-01-29T04:41:45.961Z,17.17
2023-01-29T04:44:34.432Z,17.33
2023-01-29T04:47:06.025Z,17.27
2023-01-29T04:49:45.933Z,16.75
2023-01-29T04:52:12.387Z,17.13
2023-01-29T04:54:51.326Z,17.75
2023-01-29T04:57:23.439Z,17.20
2023-01-29T05:00:00.731Z,17.95
2023-01-29T05:02:28.029Z,19.30
2023-01-29T05:04:55.266Z,17.55
2023-01-29T05:07:22.936Z,18.33
2023-01-29T05:12:17.554Z,18.58
2023-01-29T05:14:45.480Z,17.02
2023-01-29T05:17:15.992Z,17.98
2023-01-29T05:19:45.266Z,17.15
2023-01-29T05:22:12.967Z,15.40
2023-01-29T05:27:33.170Z,16.92
2023-01-29T05:30:00.173Z,17.30
2023-01-29T05:35:26.287Z,17.50
2023-01-29T05:37:59.156Z,17.10
2023-01-29T05:40:26.665Z,16.90
2023-01-29T05:42:53.288Z,17.13
2023-01-29T05:45:19.972Z,17.38
2023-01-29T05:47:47.587Z,17.65
2023-01-29T05:52:58.023Z,17.48
2023-01-29T05:55:45.855Z,18.15
2023-01-29T05:58:24.042Z,19.67
2023-01-29T06:00:54.269Z,17.52
2023-01-29T06:03:21.291Z,16.42
2023-01-29T06:05:52.330Z,18.13
2023-01-29T06:08:23.660Z,18.33
2023-01-29T06:10:50.692Z,18.38
2023-01-29T06:13:22.726Z,19.25
2023-01-29T06:15:50.127Z,18.15
2023-01-29T06:18:16.678Z,17.42
2023-01-29T06:20:43.136Z,18.00
2023-01-29T06:23:09.630Z,18.83
2023-01-29T06:25:36.219Z,20.10
2023-01-29T06:28:02.755Z,18.15
2023-01-29T06:30:29.917Z,18.30
2023-01-29T06:32:58.928Z,19.02
2023-01-29T06:35:25.774Z,17.30
2023-01-29T06:37:52.688Z,18.30
2023-01-29T06:40:19.469Z,18.08
2023-01-29T06:42:46.265Z,17.60
2023-01-29T06:45:13.210Z,18.92
2023-01-29T06:47:40.102Z,19.20
2023-01-29T06:50:07.207Z,18.30
2023-01-29T06:52:33.969Z,19.65
2023-01-29T06:55:00.559Z,19.93
2023-01-29T06:57:28.800Z,18.58
2023-01-29T06:59:55.358Z,19.58
2023-01-29T07:02:21.833Z,19.88
2023-01-29T07:04:48.338Z,19.80
2023-01-29T07:07:14.745Z,20.08
2023-01-29T07:09:41.618Z,19.80
2023-01-29T07:12:08.774Z,18.77
2023-01-29T07:14:35.202Z,21.40
2023-01-29T07:17:01.768Z,19.13
2023-01-29T07:19:28.235Z,21.38
2023-01-29T07:21:54.701Z,22.25
2023-01-29T07:24:23.278Z,20.48
2023-01-29T07:26:49.746Z,21.02
2023-01-29T07:29:16.227Z,22.45
2023-01-29T07:31:42.755Z,20.00
2023-01-29T07:34:11.488Z,21.75
2023-01-29T07:36:39.908Z,22.30
2023-01-29T07:39:07.343Z,20.58
2023-01-29T07:41:39.956Z,20.75
2023-01-29T07:44:13.195Z,21.83
2023-01-29T07:46:39.773Z,22.33
2023-01-29T07:49:11.639Z,20.95
2023-01-29T07:51:43.047Z,20.60
2023-01-29T07:54:09.513Z,18.70
2023-01-29T07:56:37.178Z,20.75
2023-01-29T08:01:30.101Z,21.15
2023-01-29T08:03:56.977Z,20.02
2023-01-29T08:06:23.377Z,21.70
2023-01-29T08:08:49.817Z,21.73
2023-01-29T08:11:17.276Z,21.08
2023-01-29T08:13:46.767Z,17.77
2023-01-29T08:16:13.382Z,16.95
2023-01-29T08:18:48.953Z,22.20
2023-01-29T08:21:16.160Z,20.85
2023-01-29T08:23:42.669Z,22.00
2023-01-29T08:26:10.530Z,20.75
2023-01-29T08:28:51.182Z,20.30
2023-01-29T08:31:20.758Z,19.25
2023-01-29T08:33:47.484Z,19.27
2023-01-29T08:36:16.414Z,19.25
2023-01-29T08:38:42.941Z,18.10
2023-01-29T08:41:10.699Z,20.20
2023-01-29T08:46:05.287Z,18.20
2023-01-29T08:48:31.907Z,16.80
2023-01-29T08:51:02.372Z,18.58
2023-01-29T08:53:28.917Z,19.60
2023-01-29T08:55:56.493Z,19.40
2023-01-29T08:58:22.892Z,18.92
2023-01-29T09:00:49.559Z,18.65
2023-01-29T09:03:18.325Z,18.65
2023-01-29T09:05:48.768Z,19.20
2023-01-29T09:08:40.983Z,18.15
2023-01-29T09:11:09.039Z,19.13
2023-01-29T09:13:38.949Z,19.42
2023-01-29T09:16:05.577Z,20.30
2023-01-29T09:18:32.881Z,18.48
2023-01-29T09:21:02.087Z,18.23
2023-01-29T09:23:29.418Z,18.75
2023-01-29T09:25:56.506Z,19.45
2023-01-29T09:28:23.261Z,18.13
2023-01-29T09:30:51.271Z,17.83
2023-01-29T09:33:18.452Z,19.88
2023-01-29T09:35:47.895Z,19.17
2023-01-29T09:38:14.596Z,19.15
2023-01-29T09:40:46.215Z,18.60
2023-01-29T09:43:24.763Z,17.52
2023-01-29T09:46:04.788Z,18.85
2023-01-29T09:48:34.511Z,20.52
2023-01-29T09:51:17.404Z,19.67
2023-01-29T09:53:49.357Z,17.30
2023-01-29T09:56:30.451Z,19.98
2023-01-29T09:59:00.538Z,19.85
2023-01-29T10:01:29.416Z,19.73
2023-01-29T10:04:04.850Z,19.58
2023-01-29T10:06:31.447Z,19.92
2023-01-29T10:09:19.438Z,18.70
2023-01-29T10:12:08.959Z,16.97
2023-01-29T10:14:56.152Z,19.58
2023-01-29T10:17:31.877Z,18.75
2023-01-29T10:20:05.874Z,18.35
2023-01-29T10:22:38.878Z,17.05
2023-01-29T10:25:12.194Z,20.65
2023-01-29T10:27:45.407Z,16.38
2023-01-29T10:30:39.149Z,19.83
2023-01-29T10:33:06.601Z,16.13
2023-01-29T10:35:36.219Z,19.08
2023-01-29T10:38:22.588Z,20.17
2023-01-29T10:41:01.453Z,18.40
2023-01-29T10:43:33.330Z,16.50
2023-01-29T10:46:11.354Z,17.88
2023-01-29T10:48:48.238Z,18.27
2023-01-29T10:51:15.229Z,18.55
2023-01-29T10:54:00.229Z,18.65
2023-01-29T10:56:26.715Z,18.88
2023-01-29T10:59:15.997Z,18.60
2023-01-29T11:01:42.685Z,18.05
2023-01-29T11:04:12.000Z,19.30
2023-01-29T11:06:39.714Z,15.45
2023-01-29T11:11:48.203Z,17.13
2023-01-29T11:14:39.631Z,17.38
2023-01-29T11:17:18.405Z,17.67
2023-01-29T11:22:38.126Z,17.05
2023-01-29T11:25:26.301Z,18.50
2023-01-29T11:27:59.487Z,15.10
2023-01-29T11:30:39.919Z,16.20
2023-01-29T11:33:15.214Z,15.80
2023-01-29T11:35:43.784Z,15.90
2023-01-29T11:38:16.443Z,17.20
2023-01-29T11:40:46.887Z,18.25
2023-01-29T11:43:13.814Z,18.90
2023-01-29T11:45:41.719Z,16.65
2023-01-29T11:48:19.208Z,17.98
2023-01-29T11:50:55.284Z,18.88
2023-01-29T11:53:24.048Z,17.35
2023-01-29T11:55:51.780Z,15.57
2023-01-29T11:58:21.148Z,17.02
2023-01-29T12:00:59.118Z,17.42
2023-01-29T12:03:32.575Z,17.05
2023-01-29T12:06:07.282Z,15.82
2023-01-29T12:08:36.550Z,16.70
2023-01-29T12:11:22.142Z,15.82
2023-01-29T12:13:53.613Z,17.08
2023-01-29T12:16:35.692Z,17.48
2023-01-29T12:19:10.798Z,17.77
2023-01-29T12:21:58.191Z,16.17
2023-01-29T12:24:27.779Z,17.60
2023-01-29T12:27:14.443Z,14.55
2023-01-29T12:29:44.710Z,18.27
2023-01-29T12:32:35.803Z,15.35
2023-01-29T12:35:03.317Z,15.13
2023-01-29T12:37:46.185Z,14.40
2023-01-29T12:40:13.999Z,16.13
2023-01-29T12:42:55.772Z,15.63
2023-01-29T12:45:29.448Z,16.92
2023-01-29T12:47:59.255Z,15.68
2023-01-29T12:50:36.381Z,17.08
2023-01-29T12:53:21.888Z,17.77
2023-01-29T12:55:55.575Z,17.60
2023-01-29T12:58:43.389Z,17.63
2023-01-29T13:01:15.621Z,18.33
2023-01-29T13:03:48.863Z,17.38
2023-01-29T13:06:17.686Z,18.02
2023-01-29T13:08:53.945Z,16.67
2023-01-29T13:11:27.065Z,17.33
2023-01-29T13:13:59.254Z,18.58
2023-01-29T13:16:28.060Z,18.05
2023-01-29T13:19:02.802Z,17.98
2023-01-29T13:21:39.106Z,17.92
2023-01-29T13:24:10.095Z,19.05
2023-01-29T13:26:39.161Z,19.25
2023-01-29T13:29:25.283Z,17.73
2023-01-29T13:32:01.359Z,20.73
2023-01-29T13:34:45.903Z,18.58
2023-01-29T13:37:35.301Z,19.63
2023-01-29T13:40:02.577Z,15.80
2023-01-29T13:42:36.283Z,19.13
2023-01-29T13:45:04.176Z,19.90
2023-01-29T13:47:33.263Z,18.00
2023-01-29T13:50:00.919Z,20.30
2023-01-29T13:52:27.317Z,19.42
2023-01-29T13:54:57.295Z,20.45
2023-01-29T13:57:55.804Z,21.42
2023-01-29T14:00:22.607Z,21.00
2023-01-29T14:02:49.351Z,20.80
2023-01-29T14:05:31.477Z,19.33
2023-01-29T14:08:02.970Z,22.10
2023-01-29T14:10:30.663Z,21.40
2023-01-29T14:15:29.158Z,22.70
2023-01-29T14:17:59.926Z,18.95
2023-01-29T14:20:45.179Z,21.98
2023-01-29T14:23:26.958Z,23.35
2023-01-29T14:25:53.587Z,22.55
2023-01-29T14:28:25.101Z,22.50
2023-01-29T14:30:52.310Z,20.00
2023-01-29T14:33:39.884Z,24.63
2023-01-29T14:38:34.745Z,19.80
2023-01-29T14:41:18.582Z,25.08
2023-01-29T14:43:45.160Z,24.48
2023-01-29T14:46:30.540Z,25.27
2023-01-29T14:48:57.438Z,24.88
2023-01-29T14:51:25.323Z,24.83
2023-01-29T14:53:53.056Z,20.83
2023-01-29T14:56:24.731Z,22.88
2023-01-29T14:59:02.895Z,25.92
2023-01-29T15:01:35.910Z,24.00
2023-01-29T15:04:02.394Z,24.05
2023-01-29T15:06:55.394Z,23.48
2023-01-29T15:09:46.020Z,25.42
2023-01-29T15:12:30.691Z,24.98
2023-01-29T15:14:57.552Z,26.35
2023-01-29T15:17:37.649Z,27.02
2023-01-29T15:20:22.813Z,22.80
2023-01-29T15:22:49.184Z,23.65
2023-01-29T15:25:15.989Z,25.10
2023-01-29T15:27:43.749Z,21.85
2023-01-29T15:32:37.738Z,20.95
2023-01-29T15:37:35.051Z,23.95
2023-01-29T15:40:08.554Z,25.00
2023-01-29T15:42:46.819Z,25.60
2023-01-29T15:47:51.834Z,22.33
2023-01-29T15:50:18.397Z,24.88
2023-01-29T15:52:49.048Z,24.38
2023-01-29T15:55:17.418Z,24.92
2023-01-29T15:57:45.208Z,23.33
2023-01-29T16:02:39.858Z,25.75
2023-01-29T16:05:26.655Z,22.40
2023-01-29T16:07:54.206Z,23.95
2023-01-29T16:10:21.952Z,22.27
2023-01-29T16:15:21.185Z,20.25
2023-01-29T16:17:50.533Z,22.40
2023-01-29T16:20:41.380Z,18.67
2023-01-29T16:23:24.784Z,21.27
2023-01-29T16:25:51.641Z,22.25
2023-01-29T16:28:19.104Z,20.83
2023-01-29T16:30:50.676Z,18.70
2023-01-29T16:33:17.594Z,20.98
2023-01-29T16:35:50.189Z,22.05
2023-01-29T16:38:25.091Z,19.80
2023-01-29T16:41:14.477Z,18.60
2023-01-29T16:43:54.539Z,21.83
2023-01-29T16:46:21.077Z,19.70
2023-01-29T16:48:47.960Z,19.40
2023-01-29T16:51:25.263Z,20.80
2023-01-29T16:54:11.578Z,20.07
2023-01-29T16:56:52.922Z,20.92
2023-01-29T16:59:21.453Z,18.58
2023-01-29T17:01:49.484Z,21.30
2023-01-29T17:04:18.222Z,19.38
2023-01-29T17:06:46.213Z,20.67
2023-01-29T17:09:25.569Z,20.67
2023-01-29T17:11:56.697Z,18.73
2023-01-29T17:14:24.006Z,20.98
2023-01-29T17:16:53.398Z,20.77
2023-01-29T17:19:20.901Z,21.90
2023-01-29T17:24:13.761Z,21.80
2023-01-29T17:26:40.613Z,19.48
2023-01-29T17:29:13.289Z,20.02
2023-01-29T17:31:39.787Z,20.25
2023-01-29T17:34:10.513Z,19.85
2023-01-29T17:36:37.030Z,21.05
2023-01-29T17:39:10.856Z,22.95
2023-01-29T17:41:38.143Z,22.83
2023-01-29T17:44:04.492Z,21.27
2023-01-29T17:46:30.978Z,21.77
2023-01-29T17:48:57.630Z,21.02
2023-01-29T17:51:25.076Z,18.35
2023-01-29T17:53:51.866Z,20.92
2023-01-29T17:56:21.387Z,21.95
2023-01-29T17:58:47.979Z,22.52
2023-01-29T18:01:14.653Z,20.48
2023-01-29T18:03:41.359Z,23.10
2023-01-29T18:06:09.204Z,22.10
2023-01-29T18:08:36.855Z,22.60
2023-01-29T18:13:30.255Z,20.77
2023-01-29T18:15:56.819Z,19.83
2023-01-29T18:18:24.115Z,21.95
2023-01-29T18:20:50.740Z,22.15
2023-01-29T18:23:18.328Z,20.63
2023-01-29T18:28:17.274Z,20.10
2023-01-29T18:30:45.948Z,20.85
2023-01-29T18:33:12.911Z,22.83
2023-01-29T18:35:39.383Z,21.05
2023-01-29T18:38:05.860Z,19.05
2023-01-29T18:40:32.397Z,23.05
2023-01-29T18:43:01.952Z,22.70
2023-01-29T18:45:34.628Z,23.27
2023-01-29T18:48:01.327Z,21.35
2023-01-29T18:50:28.883Z,21.40
2023-01-29T18:52:55.273Z,25.23
2023-01-29T18:55:22.344Z,22.25
2023-01-29T18:58:27.239Z,22.65
2023-01-29T19:00:39.012Z,21.90
2023-01-29T19:03:05.371Z,23.58
2023-01-29T19:05:33.248Z,22.40
2023-01-29T19:07:59.769Z,21.08
2023-01-29T19:10:26.438Z,21.33
2023-01-29T19:12:53.071Z,15.87
2023-01-29T19:15:22.015Z,20.83
2023-01-29T19:17:49.040Z,22.40
2023-01-29T19:20:15.776Z,20.77
2023-01-29T19:22:42.250Z,21.37
2023-01-29T19:25:09.000Z,21.85
2023-01-29T19:27:35.406Z,21.87
2023-01-29T19:30:02.736Z,19.10
2023-01-29T19:32:30.056Z,18.40
2023-01-29T19:34:57.762Z,19.02
2023-01-29T19:37:24.410Z,21.02
2023-01-29T19:39:50.974Z,21.85
2023-01-29T19:42:17.353Z,20.85
2023-01-29T19:44:45.372Z,21.08
2023-01-29T19:47:12.813Z,19.75
2023-01-29T19:49:40.420Z,22.38
2023-01-29T19:52:14.716Z,18.13
2023-01-29T19:54:46.108Z,20.17
2023-01-29T19:57:12.497Z,20.77
2023-01-29T19:59:38.813Z,19.65
2023-01-29T20:02:05.434Z,20.27
2023-01-29T20:04:31.726Z,18.77
2023-01-29T20:06:58.389Z,16.52
2023-01-29T20:09:25.692Z,18.48
2023-01-29T20:11:54.014Z,19.77
2023-01-29T20:14:20.466Z,18.55
2023-01-29T20:16:46.769Z,19.40
2023-01-29T20:19:14.943Z,18.52
2023-01-29T20:21:42.210Z,19.13
2023-01-29T20:24:12.316Z,18.17
2023-01-29T20:26:39.019Z,20.10
2023-01-29T20:29:06.410Z,20.17
2023-01-29T20:31:33.401Z,16.35
2023-01-29T20:33:59.851Z,18.50
2023-01-29T20:36:26.165Z,18.77
2023-01-29T20:38:52.463Z,19.13
2023-01-29T20:41:19.448Z,19.42
2023-01-29T20:43:46.889Z,18.08
2023-01-29T20:46:13.320Z,18.02
2023-01-29T20:48:40.092Z,18.00
2023-01-29T20:51:09.163Z,18.48
2023-01-29T20:53:36.149Z,16.88
2023-01-29T20:56:04.424Z,18.63
2023-01-29T20:58:31.143Z,18.58
2023-01-29T21:00:58.048Z,17.98
2023-01-29T21:03:24.425Z,18.83
2023-01-29T21:05:51.567Z,18.60
2023-01-29T21:08:17.874Z,19.73
2023-01-29T21:10:45.691Z,20.73
2023-01-29T21:13:12.177Z,17.20
2023-01-29T21:15:38.641Z,21.45
2023-01-29T21:18:06.478Z,20.50
2023-01-29T21:20:32.990Z,17.90
2023-01-29T21:22:59.336Z,18.88
2023-01-29T21:25:26.027Z,17.75
2023-01-29T21:27:52.423Z,18.73
2023-01-29T21:30:19.326Z,17.42
2023-01-29T21:32:45.855Z,18.35
2023-01-29T21:35:12.564Z,19.23
2023-01-29T21:37:38.986Z,19.50
2023-01-29T21:40:05.956Z,17.52
2023-01-29T21:42:50.681Z,21.02
2023-01-29T21:45:17.049Z,17.95
2023-01-29T21:47:43.427Z,19.38
2023-01-29T21:50:10.015Z,19.77
2023-01-29T21:52:39.539Z,19.00
2023-01-29T21:55:06.298Z,19.52
2023-01-29T21:57:33.566Z,21.40
2023-01-29T21:59:59.914Z,17.70
2023-01-29T22:02:27.659Z,21.38
2023-01-29T22:05:05.334Z,18.10
2023-01-29T22:07:38.582Z,21.42
2023-01-29T22:10:05.212Z,21.88
2023-01-29T22:12:31.550Z,20.10
2023-01-29T22:14:57.842Z,21.30
2023-01-29T22:17:24.184Z,22.17
2023-01-29T22:19:50.508Z,19.10
2023-01-29T22:22:17.499Z,21.25
2023-01-29T22:24:46.481Z,18.98
2023-01-29T22:27:13.651Z,20.83
2023-01-29T22:29:39.999Z,22.55
2023-01-29T22:32:06.767Z,21.42
2023-01-29T22:34:33.324Z,20.13
2023-01-29T22:36:59.685Z,22.13
2023-01-29T22:39:25.962Z,20.60
2023-01-29T22:41:52.405Z,22.45
2023-01-29T22:44:18.732Z,21.05
2023-01-29T22:46:45.009Z,22.13
2023-01-29T22:49:11.576Z,26.35
2023-01-29T22:51:37.881Z,23.08
2023-01-29T22:54:04.354Z,20.17
2023-01-29T22:56:31.066Z,21.35
2023-01-29T22:58:58.550Z,21.20
2023-01-29T23:01:26.000Z,21.55
2023-01-29T23:03:52.280Z,21.30
2023-01-29T23:06:18.637Z,24.35
2023-01-29T23:08:45.311Z,21.67
2023-01-29T23:11:14.682Z,21.17
2023-01-29T23:13:44.904Z,24.13
2023-01-29T23:16:11.439Z,21.67
2023-01-29T23:18:38.094Z,18.87
2023-01-29T23:21:04.867Z,24.88
2023-01-29T23:23:31.734Z,20.40
2023-01-29T23:26:17.468Z,26.25
2023-01-29T23:28:44.476Z,21.63
2023-01-29T23:31:11.426Z,24.40
2023-01-29T23:33:37.947Z,22.10
2023-01-29T23:36:04.880Z,24.05
2023-01-29T23:38:31.170Z,21.67
2023-01-29T23:40:58.125Z,23.55
2023-01-29T23:43:27.939Z,24.52
2023-01-29T23:45:54.479Z,24.10
2023-01-29T23:48:21.012Z,22.60
2023-01-29T23:50:47.837Z,23.38
2023-01-29T23:53:15.537Z,29.33
2023-01-29T23:58:08.206Z,26.85
